Time;durP1;ratioP1;P1;durP2;ratioP2;P2;SDS_P1;SDS_P2;PMS_P1;PMS_P2;Temp;Humidity;BMP_temperature;BMP_pressure;BME280_temperature;BME280_humidity;BME280_pressure;Samples;Min_cycle;Max_cycle;Signal;HPM_P1;HPM_P2
2023/09/10 00:02:20;;;;;;;12.18;10.88;;;17.80;99.90;;;;;;5080362;28;20231;-82
2023/09/10 00:04:47;;;;;;;12.50;10.75;;;17.70;99.90;;;;;;5073487;28;20226;-81
2023/09/10 00:07:15;;;;;;;13.85;11.50;;;17.70;99.90;;;;;;5074275;28;20229;-82
2023/09/10 00:09:41;;;;;;;13.38;12.07;;;17.70;99.90;;;;;;5069072;28;20228;-82
2023/09/10 00:12:08;;;;;;;13.95;12.13;;;17.70;99.90;;;;;;5068266;28;20310;-82
2023/09/10 00:14:35;;;;;;;13.95;12.52;;;17.70;99.90;;;;;;5074675;28;20254;-81
2023/09/10 00:17:02;;;;;;;13.52;12.13;;;17.70;99.90;;;;;;5073118;28;20214;-81
2023/09/10 00:19:29;;;;;;;13.77;12.25;;;17.60;99.90;;;;;;5065184;28;20321;-84
2023/09/10 00:21:55;;;;;;;14.10;12.23;;;17.60;99.90;;;;;;5076253;28;20227;-82
2023/09/10 00:24:24;;;;;;;13.85;12.45;;;17.60;99.90;;;;;;5075419;28;20806;-82
2023/09/10 00:26:51;;;;;;;14.00;12.50;;;17.60;99.90;;;;;;5075188;28;20231;-83
2023/09/10 00:29:17;;;;;;;13.38;11.95;;;17.60;99.90;;;;;;5069868;28;20222;-83
2023/09/10 00:31:44;;;;;;;14.48;12.98;;;17.60;99.90;;;;;;5079346;28;20810;-83
2023/09/10 00:34:12;;;;;;;16.45;14.68;;;17.60;99.90;;;;;;5072843;28;20253;-83
2023/09/10 00:36:39;;;;;;;16.80;15.07;;;17.50;99.90;;;;;;5071603;28;20892;-83
2023/09/10 00:39:07;;;;;;;14.80;13.02;;;17.50;99.90;;;;;;5076836;28;20223;-83
2023/09/10 00:41:35;;;;;;;15.35;13.75;;;17.50;99.90;;;;;;5070416;28;20249;-82
2023/09/10 00:44:02;;;;;;;14.05;12.65;;;17.50;99.90;;;;;;5073162;28;20223;-82
2023/09/10 00:46:30;;;;;;;14.10;12.52;;;17.50;99.90;;;;;;5071732;28;20499;-82
2023/09/10 00:48:59;;;;;;;14.18;12.68;;;17.50;99.90;;;;;;5072912;28;20280;-82
2023/09/10 00:51:26;;;;;;;14.02;12.63;;;17.50;99.90;;;;;;5074327;28;20324;-81
2023/09/10 00:53:55;;;;;;;14.32;12.85;;;17.40;99.90;;;;;;5079436;28;20223;-81
2023/09/10 00:56:24;;;;;;;15.45;13.50;;;17.40;99.90;;;;;;5066550;28;20242;-81
2023/09/10 00:58:53;;;;;;;15.93;14.23;;;17.40;99.90;;;;;;5071077;28;20235;-83
2023/09/10 01:01:20;;;;;;;13.05;11.85;;;17.40;99.90;;;;;;5078917;28;20215;-82
2023/09/10 01:03:47;;;;;;;13.65;12.35;;;17.40;99.90;;;;;;5076531;28;20245;-82
2023/09/10 01:06:14;;;;;;;14.32;12.88;;;17.30;99.90;;;;;;5075100;28;20314;-82
2023/09/10 01:08:41;;;;;;;12.90;11.60;;;17.30;99.90;;;;;;5077272;28;20237;-82
2023/09/10 01:11:15;;;;;;;14.73;13.23;;;17.30;99.90;;;;;;5076846;28;20924;-81
2023/09/10 01:13:51;;;;;;;14.95;13.05;;;17.30;99.90;;;;;;5074243;28;20306;-81
2023/09/10 01:16:28;;;;;;;13.63;12.32;;;17.20;99.90;;;;;;5081417;28;20222;-81
2023/09/10 01:19:04;;;;;;;14.45;12.40;;;17.20;99.90;;;;;;5071534;28;20214;-81
2023/09/10 01:21:49;;;;;;;14.18;12.65;;;17.20;99.90;;;;;;5073799;28;20683;-82
2023/09/10 01:24:24;;;;;;;15.05;13.02;;;17.20;99.90;;;;;;5076305;28;20317;-82
2023/09/10 01:26:56;;;;;;;15.65;13.05;;;17.10;99.90;;;;;;5073043;28;20230;-82
2023/09/10 01:29:23;;;;;;;16.58;14.25;;;17.10;99.90;;;;;;5096135;28;20219;-82
2023/09/10 01:31:53;;;;;;;15.25;13.75;;;17.10;99.90;;;;;;5078462;28;20219;-82
2023/09/10 01:34:23;;;;;;;15.23;13.77;;;17.10;99.90;;;;;;5082111;28;20843;-82
2023/09/10 01:36:54;;;;;;;14.35;12.88;;;17.10;99.90;;;;;;5080509;28;20606;-82
2023/09/10 01:39:25;;;;;;;14.48;13.02;;;17.00;99.90;;;;;;5081290;28;20250;-83
2023/09/10 01:41:53;;;;;;;14.73;13.25;;;17.00;99.90;;;;;;5078586;28;20890;-83
2023/09/10 01:44:24;;;;;;;14.52;12.98;;;17.00;99.90;;;;;;5077820;28;20224;-83
2023/09/10 01:46:52;;;;;;;14.77;13.20;;;16.90;99.90;;;;;;5076411;28;20219;-84
2023/09/10 01:49:20;;;;;;;19.90;13.02;;;16.90;99.90;;;;;;5079960;28;20872;-84
2023/09/10 01:51:48;;;;;;;15.15;13.60;;;16.90;99.90;;;;;;5080080;28;20225;-85
2023/09/10 01:54:14;;;;;;;14.85;11.93;;;16.90;99.90;;;;;;5078672;28;20935;-84
2023/09/10 01:56:41;;;;;;;16.13;13.32;;;16.90;99.90;;;;;;5079695;28;20700;-84
2023/09/10 01:59:08;;;;;;;15.02;13.13;;;16.80;99.90;;;;;;5073834;28;20233;-84
2023/09/10 02:01:37;;;;;;;14.88;13.30;;;16.80;99.90;;;;;;5073227;28;20251;-84
2023/09/10 02:04:05;;;;;;;16.23;14.43;;;16.80;99.90;;;;;;5071944;28;21014;-82
2023/09/10 02:06:31;;;;;;;14.07;11.90;;;16.80;99.90;;;;;;5082034;28;20327;-83
2023/09/10 02:08:58;;;;;;;16.83;15.03;;;16.70;99.90;;;;;;5071512;28;20828;-82
2023/09/10 02:11:26;;;;;;;15.65;14.00;;;16.70;99.90;;;;;;5073836;28;20242;-82
2023/09/10 02:13:53;;;;;;;15.37;13.77;;;16.70;99.90;;;;;;5073743;28;20306;-82
2023/09/10 02:16:20;;;;;;;15.23;13.63;;;16.60;99.90;;;;;;5073409;28;20242;-81
2023/09/10 02:18:48;;;;;;;15.90;14.30;;;16.60;99.90;;;;;;5079922;28;20321;-82
2023/09/10 02:21:15;;;;;;;16.83;15.05;;;16.60;99.90;;;;;;5079092;28;20226;-82
2023/09/10 02:23:43;;;;;;;17.02;15.20;;;16.60;99.90;;;;;;5075988;28;20226;-82
2023/09/10 02:26:10;;;;;;;17.33;15.57;;;16.60;99.90;;;;;;5080050;28;20237;-82
2023/09/10 02:28:37;;;;;;;17.70;15.88;;;16.50;99.90;;;;;;5073925;28;20230;-82
2023/09/10 02:31:07;;;;;;;17.52;15.73;;;16.50;99.90;;;;;;5072639;28;20324;-82
2023/09/10 02:33:35;;;;;;;15.73;14.13;;;16.50;99.90;;;;;;5078729;28;20870;-82
2023/09/10 02:36:04;;;;;;;16.47;14.77;;;16.50;99.90;;;;;;5075550;28;20294;-82
2023/09/10 02:38:31;;;;;;;17.17;13.82;;;16.40;99.90;;;;;;5088815;28;20226;-83
2023/09/10 02:41:00;;;;;;;15.65;14.02;;;16.40;99.90;;;;;;5081013;28;20230;-82
2023/09/10 02:43:27;;;;;;;16.55;14.88;;;16.40;99.90;;;;;;5075087;28;20231;-82
2023/09/10 02:45:54;;;;;;;15.45;13.93;;;16.40;99.90;;;;;;5076753;28;20219;-82
2023/09/10 02:48:22;;;;;;;15.25;13.80;;;16.40;99.90;;;;;;5072361;28;21045;-82
2023/09/10 02:50:49;;;;;;;17.55;15.07;;;16.30;99.90;;;;;;5081594;28;20285;-83
2023/09/10 02:53:17;;;;;;;16.95;15.15;;;16.30;99.90;;;;;;5067296;28;20941;-82
2023/09/10 02:55:44;;;;;;;18.50;16.70;;;16.30;99.90;;;;;;5070378;28;20226;-83
2023/09/10 02:58:11;;;;;;;18.43;15.50;;;16.20;99.90;;;;;;5071835;28;20233;-82
2023/09/10 03:00:38;;;;;;;18.13;16.23;;;16.20;99.90;;;;;;5081076;28;20301;-83
2023/09/10 03:03:05;;;;;;;17.80;15.97;;;16.20;99.90;;;;;;5075677;28;20227;-83
2023/09/10 03:05:34;;;;;;;18.83;16.95;;;16.20;99.90;;;;;;5071173;28;20234;-83
2023/09/10 03:08:00;;;;;;;17.35;15.57;;;16.20;99.90;;;;;;5081843;28;20320;-82
2023/09/10 03:10:28;;;;;;;16.20;14.55;;;16.20;99.90;;;;;;5076571;28;20222;-83
2023/09/10 03:12:55;;;;;;;16.90;15.23;;;16.10;99.90;;;;;;5074295;28;20791;-83
2023/09/10 03:15:22;;;;;;;17.47;15.57;;;16.10;99.90;;;;;;5083437;28;20314;-83
2023/09/10 03:17:49;;;;;;;16.47;14.80;;;16.10;99.90;;;;;;5084120;28;20227;-84
2023/09/10 03:20:16;;;;;;;16.98;15.18;;;16.00;99.90;;;;;;5077392;28;20230;-82
2023/09/10 03:22:43;;;;;;;16.60;15.00;;;16.00;99.90;;;;;;5077397;28;20247;-82
2023/09/10 03:25:10;;;;;;;17.10;15.30;;;16.00;99.90;;;;;;5074634;28;20230;-83
2023/09/10 03:27:38;;;;;;;16.53;14.83;;;16.00;99.90;;;;;;5077212;28;20221;-84
2023/09/10 03:30:06;;;;;;;16.83;15.13;;;16.00;99.90;;;;;;5082851;28;20648;-82
2023/09/10 03:32:33;;;;;;;18.03;16.23;;;15.90;99.90;;;;;;5073406;28;20214;-82
2023/09/10 03:35:00;;;;;;;16.77;14.97;;;15.90;99.90;;;;;;5071735;28;20301;-83
2023/09/10 03:37:26;;;;;;;18.17;16.27;;;15.90;99.90;;;;;;5080525;28;20235;-82
2023/09/10 03:39:53;;;;;;;16.80;15.00;;;15.90;99.90;;;;;;5083180;28;20222;-84
2023/09/10 03:42:20;;;;;;;17.77;15.87;;;15.80;99.90;;;;;;5080658;28;20215;-83
2023/09/10 03:44:48;;;;;;;18.13;16.23;;;15.80;99.90;;;;;;5086708;28;20272;-83
2023/09/10 03:47:15;;;;;;;17.87;15.97;;;15.80;99.90;;;;;;5079593;28;20211;-82
2023/09/10 03:49:42;;;;;;;19.23;17.10;;;15.70;99.90;;;;;;5080254;28;20752;-82
2023/09/10 03:52:16;;;;;;;21.98;19.60;;;15.70;99.90;;;;;;5085437;28;20222;-82
2023/09/10 03:54:43;;;;;;;19.33;17.33;;;15.70;99.90;;;;;;5082708;28;20230;-81
2023/09/10 03:57:10;;;;;;;19.57;17.50;;;15.70;99.90;;;;;;5082339;28;20218;-81
2023/09/10 03:59:37;;;;;;;18.80;16.90;;;15.70;99.90;;;;;;5096861;28;20237;-83
2023/09/10 04:02:05;;;;;;;32.20;28.33;;;15.60;99.90;;;;;;5081377;28;20245;-82
2023/09/10 04:04:32;;;;;;;33.73;29.40;;;15.60;99.90;;;;;;5077896;28;20227;-83
2023/09/10 04:06:59;;;;;;;31.73;28.13;;;15.60;99.90;;;;;;5073884;28;20432;-83
2023/09/10 04:09:26;;;;;;;35.23;31.47;;;15.70;99.90;;;;;;5076108;28;20913;-83
2023/09/10 04:11:54;;;;;;;38.93;33.67;;;15.70;99.90;;;;;;5078548;28;20283;-83
2023/09/10 04:14:21;;;;;;;48.63;40.57;;;15.70;99.90;;;;;;5081734;28;20233;-81
2023/09/10 04:16:48;;;;;;;45.10;37.80;;;15.70;99.90;;;;;;5081973;28;20245;-82
2023/09/10 04:19:16;;;;;;;50.10;39.63;;;15.80;99.90;;;;;;5077933;28;20228;-83
2023/09/10 04:21:43;;;;;;;49.93;41.67;;;15.80;99.90;;;;;;5092298;28;20225;-84
2023/09/10 04:24:10;;;;;;;48.37;42.20;;;15.80;99.90;;;;;;5084363;28;20222;-85
2023/09/10 04:26:37;;;;;;;54.47;43.10;;;15.80;99.90;;;;;;5079908;28;20878;-85
2023/09/10 04:29:05;;;;;;;52.70;43.53;;;15.90;99.90;;;;;;5084549;28;20215;-83
2023/09/10 04:31:37;;;;;;;56.67;46.57;;;15.90;99.90;;;;;;5082571;28;20219;-84
2023/09/10 04:34:04;;;;;;;60.90;48.07;;;16.00;99.90;;;;;;5078558;28;20215;-83
2023/09/10 04:36:33;;;;;;;58.83;47.00;;;16.00;99.90;;;;;;5081996;28;20401;-83
2023/09/10 04:39:05;;;;;;;73.90;51.60;;;16.10;99.90;;;;;;5079789;28;20242;-83
2023/09/10 04:41:33;;;;;;;76.27;52.80;;;16.10;99.90;;;;;;5072873;28;20225;-84
2023/09/10 04:44:01;;;;;;;70.33;53.07;;;16.20;99.90;;;;;;5078653;28;20250;-83
2023/09/10 04:46:28;;;;;;;77.97;55.57;;;16.20;99.90;;;;;;5091232;28;20234;-83
2023/09/10 04:48:56;;;;;;;83.33;54.47;;;16.20;99.90;;;;;;5096524;28;20226;-83
2023/09/10 04:51:23;;;;;;;73.40;55.97;;;16.30;99.90;;;;;;5082697;28;20233;-82
2023/09/10 04:53:51;;;;;;;109.50;59.03;;;16.30;99.90;;;;;;5083724;28;20877;-83
2023/09/10 04:56:18;;;;;;;76.70;57.03;;;16.40;99.90;;;;;;5077492;28;20252;-82
2023/09/10 04:58:45;;;;;;;84.67;56.23;;;16.40;99.90;;;;;;5084089;28;20249;-84
2023/09/10 05:01:12;;;;;;;108.63;58.50;;;16.50;99.90;;;;;;5079694;28;20227;-83
2023/09/10 05:03:41;;;;;;;96.85;54.78;;;16.50;99.90;;;;;;5084849;28;20344;-84
2023/09/10 05:06:09;;;;;;;96.33;55.93;;;16.50;99.90;;;;;;5082734;28;20219;-82
2023/09/10 05:08:36;;;;;;;104.23;55.53;;;16.60;99.90;;;;;;5082468;28;20219;-82
2023/09/10 05:11:04;;;;;;;80.05;54.28;;;16.60;99.90;;;;;;5083609;28;20264;-82
2023/09/10 05:13:32;;;;;;;81.27;55.67;;;16.60;99.90;;;;;;5086604;28;20242;-83
2023/09/10 05:15:59;;;;;;;99.90;56.80;;;16.70;99.90;;;;;;5081727;28;20290;-82
2023/09/10 05:18:27;;;;;;;93.93;53.97;;;16.70;99.90;;;;;;5084339;28;20226;-82
2023/09/10 05:20:55;;;;;;;90.57;54.23;;;16.80;99.90;;;;;;5083903;28;20330;-82
2023/09/10 05:23:24;;;;;;;86.20;54.20;;;16.70;99.90;;;;;;5074817;28;20219;-83
2023/09/10 05:25:52;;;;;;;131.60;54.73;;;16.70;99.90;;;;;;5077212;28;20775;-79
2023/09/10 05:28:21;;;;;;;90.72;55.97;;;16.80;99.90;;;;;;5078755;28;20274;-80
2023/09/10 05:30:47;;;;;;;116.47;56.92;;;16.80;99.90;;;;;;5094702;28;20219;-80
2023/09/10 05:33:14;;;;;;;71.00;55.75;;;16.70;99.90;;;;;;5078695;28;20223;-80
2023/09/10 05:35:41;;;;;;;85.20;57.53;;;16.80;99.90;;;;;;5073283;28;20230;-80
2023/09/10 05:38:10;;;;;;;114.57;58.85;;;16.80;99.90;;;;;;5076324;28;20274;-80
2023/09/10 05:40:37;;;;;;;87.70;58.67;;;16.80;99.90;;;;;;5078171;28;20222;-80
2023/09/10 05:43:05;;;;;;;97.40;55.90;;;16.90;99.90;;;;;;5083934;28;20423;-80
2023/09/10 05:45:34;;;;;;;100.60;52.90;;;16.90;99.90;;;;;;5082595;28;20307;-80
2023/09/10 05:48:01;;;;;;;123.57;53.33;;;17.00;99.90;;;;;;5088415;28;20337;-80
2023/09/10 05:50:28;;;;;;;71.43;51.92;;;17.00;99.90;;;;;;5079431;28;20230;-81
2023/09/10 05:52:56;;;;;;;72.87;49.67;;;17.00;99.90;;;;;;5080802;28;20673;-81
2023/09/10 05:55:24;;;;;;;66.03;49.10;;;17.00;99.90;;;;;;5083019;28;20333;-80
2023/09/10 05:57:52;;;;;;;55.47;47.20;;;17.00;99.90;;;;;;5080591;28;20286;-81
2023/09/10 06:00:21;;;;;;;72.63;48.30;;;17.00;99.90;;;;;;5081134;28;20922;-81
2023/09/10 06:02:50;;;;;;;80.78;47.00;;;17.00;99.90;;;;;;5066831;28;20233;-81
2023/09/10 06:05:17;;;;;;;74.15;46.53;;;17.00;99.90;;;;;;5080910;28;20694;-80
2023/09/10 06:07:44;;;;;;;79.97;44.22;;;17.00;99.90;;;;;;5086508;28;20215;-81
2023/09/10 06:10:11;;;;;;;79.72;43.10;;;17.00;99.90;;;;;;5080433;28;20219;-81
2023/09/10 06:12:39;;;;;;;60.97;43.78;;;17.00;99.90;;;;;;5086271;28;20282;-81
2023/09/10 06:15:08;;;;;;;69.10;42.80;;;16.90;99.90;;;;;;5076095;28;20982;-81
2023/09/10 06:17:36;;;;;;;64.93;43.28;;;16.90;99.90;;;;;;5079635;28;20225;-81
2023/09/10 06:20:05;;;;;;;77.97;44.53;;;16.90;99.90;;;;;;5098865;28;20225;-80
2023/09/10 06:22:32;;;;;;;65.75;43.40;;;16.90;99.90;;;;;;5085062;28;20457;-80
2023/09/10 06:24:59;;;;;;;65.05;40.88;;;16.80;99.90;;;;;;5086083;28;20272;-81
2023/09/10 06:27:26;;;;;;;61.50;43.43;;;16.80;99.90;;;;;;5084326;28;20885;-80
2023/09/10 06:29:53;;;;;;;72.73;45.37;;;16.80;99.90;;;;;;5081420;28;20239;-81
2023/09/10 06:32:19;;;;;;;66.90;44.83;;;16.80;99.90;;;;;;5078090;28;20234;-81
2023/09/10 06:34:46;;;;;;;51.50;41.15;;;16.90;99.90;;;;;;5101312;28;20241;-81
2023/09/10 06:37:15;;;;;;;59.30;45.25;;;16.90;99.90;;;;;;5081034;28;20234;-82
2023/09/10 06:39:43;;;;;;;54.83;44.33;;;16.90;99.90;;;;;;5081149;28;20233;-81
2023/09/10 06:42:11;;;;;;;55.87;43.00;;;16.90;99.90;;;;;;5083979;28;20759;-81
2023/09/10 06:44:43;;;;;;;56.70;45.25;;;17.00;99.90;;;;;;5067842;28;20267;-81
2023/09/10 06:47:10;;;;;;;65.30;43.30;;;17.00;99.90;;;;;;5080175;28;20291;-81
2023/09/10 06:49:36;;;;;;;54.67;44.45;;;17.10;99.90;;;;;;5088742;28;20245;-81
2023/09/10 06:52:04;;;;;;;59.00;42.83;;;17.20;99.90;;;;;;5079286;28;20278;-81
2023/09/10 06:54:33;;;;;;;52.53;40.35;;;17.20;99.90;;;;;;5076081;28;20222;-81
2023/09/10 06:57:00;;;;;;;52.63;42.20;;;17.30;99.90;;;;;;5079261;28;20223;-81
2023/09/10 06:59:28;;;;;;;52.95;41.05;;;17.40;99.90;;;;;;5073461;28;20230;-81
2023/09/10 07:01:55;;;;;;;54.15;40.95;;;17.40;99.90;;;;;;5085226;28;20813;-81
2023/09/10 07:04:23;;;;;;;55.08;40.97;;;17.50;99.90;;;;;;5084804;28;20326;-81
2023/09/10 07:06:52;;;;;;;56.15;40.15;;;17.50;99.90;;;;;;5084163;28;20238;-81
2023/09/10 07:09:21;;;;;;;55.85;39.88;;;17.60;99.90;;;;;;5081640;28;20299;-81
2023/09/10 07:11:50;;;;;;;55.80;39.55;;;17.70;99.90;;;;;;5085293;28;20218;-81
2023/09/10 07:14:16;;;;;;;55.63;40.22;;;17.80;99.90;;;;;;5079573;28;20262;-83
2023/09/10 07:16:43;;;;;;;56.75;39.90;;;17.80;99.90;;;;;;5098056;28;20309;-82
2023/09/10 07:19:11;;;;;;;59.95;40.08;;;17.90;99.90;;;;;;5078866;28;20219;-83
2023/09/10 07:21:38;;;;;;;62.08;41.15;;;18.00;99.90;;;;;;5085216;28;20243;-81
2023/09/10 07:24:06;;;;;;;52.75;38.00;;;18.00;99.90;;;;;;5083602;28;20229;-83
2023/09/10 07:26:33;;;;;;;56.22;38.60;;;18.10;99.90;;;;;;5083647;28;20219;-82
2023/09/10 07:29:01;;;;;;;57.67;39.75;;;18.10;99.90;;;;;;5084570;28;20237;-81
2023/09/10 07:31:28;;;;;;;60.33;41.45;;;18.20;99.90;;;;;;5080601;28;20301;-82
2023/09/10 07:33:55;;;;;;;59.28;39.55;;;18.30;99.90;;;;;;5076661;28;20315;-82
2023/09/10 07:36:21;;;;;;;64.28;40.35;;;18.30;99.90;;;;;;5078796;28;20318;-82
2023/09/10 07:38:49;;;;;;;58.63;39.40;;;18.40;99.90;;;;;;5082752;28;20218;-81
2023/09/10 07:41:15;;;;;;;63.25;42.08;;;18.40;99.90;;;;;;5078030;28;20225;-83
2023/09/10 07:43:42;;;;;;;59.72;38.97;;;18.50;99.90;;;;;;5084661;28;20230;-82
2023/09/10 07:46:10;;;;;;;64.90;41.28;;;18.50;99.90;;;;;;5073060;28;20234;-82
2023/09/10 07:48:38;;;;;;;63.20;41.20;;;18.50;99.90;;;;;;5076423;28;20231;-80
2023/09/10 07:51:05;;;;;;;64.35;41.33;;;18.60;99.90;;;;;;5081913;28;20264;-82
2023/09/10 07:53:32;;;;;;;67.25;42.25;;;18.50;99.90;;;;;;5079515;28;20211;-81
2023/09/10 07:55:58;;;;;;;66.82;40.53;;;18.50;99.90;;;;;;5082430;28;20226;-84
2023/09/10 07:58:25;;;;;;;66.47;42.55;;;18.50;99.90;;;;;;5092787;28;20254;-82
2023/09/10 08:00:54;;;;;;;68.63;41.92;;;18.50;99.90;;;;;;5085945;28;20214;-82
2023/09/10 08:03:22;;;;;;;65.80;41.53;;;18.50;99.90;;;;;;5084576;28;20246;-82
2023/09/10 08:05:49;;;;;;;63.28;41.20;;;18.50;99.90;;;;;;5080836;28;20260;-82
2023/09/10 08:08:16;;;;;;;67.10;39.40;;;18.60;99.90;;;;;;5069437;28;20643;-83
2023/09/10 08:10:45;;;;;;;67.78;42.28;;;18.60;99.90;;;;;;5090049;28;20223;-83
2023/09/10 08:13:12;;;;;;;69.10;41.58;;;18.70;99.90;;;;;;5079337;28;20215;-83
2023/09/10 08:15:39;;;;;;;62.50;39.63;;;18.80;99.90;;;;;;5065121;28;20235;-83
2023/09/10 08:18:10;;;;;;;61.72;39.20;;;18.80;99.90;;;;;;5073975;28;20219;-83
2023/09/10 08:20:39;;;;;;;63.83;38.63;;;18.80;99.90;;;;;;5068899;28;20223;-83
2023/09/10 08:23:06;;;;;;;58.38;36.75;;;18.90;99.90;;;;;;5066080;28;20227;-83
2023/09/10 08:25:36;;;;;;;62.13;38.70;;;18.90;99.90;;;;;;5080586;28;20473;-83
2023/09/10 08:28:04;;;;;;;60.35;37.97;;;18.90;99.90;;;;;;5079242;28;21855;-83
2023/09/10 08:30:31;;;;;;;61.78;39.08;;;18.90;99.90;;;;;;5075919;28;20218;-83
2023/09/10 08:33:00;;;;;;;63.40;37.95;;;18.90;99.90;;;;;;5079437;28;20222;-83
2023/09/10 08:35:43;;;;;;;59.72;38.00;;;18.90;99.90;;;;;;5077197;28;20261;-83
2023/09/10 08:38:12;;;;;;;62.55;38.63;;;18.90;99.90;;;;;;5079099;28;20227;-83
2023/09/10 08:40:46;;;;;;;58.95;35.35;;;18.90;99.90;;;;;;5065540;28;20214;-83
2023/09/10 08:43:16;;;;;;;58.75;35.75;;;19.00;99.90;;;;;;5079187;28;20219;-83
2023/09/10 08:45:43;;;;;;;60.55;36.80;;;19.00;99.90;;;;;;5074844;28;21190;-84
2023/09/10 08:48:11;;;;;;;57.17;35.92;;;19.10;99.90;;;;;;5081824;28;20218;-84
2023/09/10 08:50:38;;;;;;;59.70;36.90;;;19.20;99.90;;;;;;5073478;28;20214;-83
2023/09/10 08:53:06;;;;;;;61.50;37.00;;;19.30;99.90;;;;;;5082073;28;20225;-82
2023/09/10 08:55:35;;;;;;;58.10;37.00;;;19.30;99.90;;;;;;5077788;28;20309;-83
2023/09/10 08:58:03;;;;;;;56.30;35.60;;;19.40;99.90;;;;;;5069638;28;20222;-83
2023/09/10 09:00:31;;;;;;;60.83;38.50;;;19.40;99.90;;;;;;5077189;28;20226;-83
2023/09/10 09:02:58;;;;;;;55.72;36.22;;;19.40;99.90;;;;;;5076963;28;20214;-82
2023/09/10 09:05:28;;;;;;;59.42;35.00;;;19.40;99.90;;;;;;5079836;28;20340;-83
2023/09/10 09:07:57;;;;;;;54.85;34.28;;;19.50;99.90;;;;;;5070311;28;20867;-83
2023/09/10 09:10:27;;;;;;;57.47;35.75;;;19.50;99.90;;;;;;5078765;28;20242;-83
2023/09/10 09:12:57;;;;;;;52.72;35.97;;;19.50;99.90;;;;;;5076624;28;20903;-83
2023/09/10 09:15:25;;;;;;;53.83;34.28;;;19.50;99.90;;;;;;5079753;28;20309;-83
2023/09/10 09:17:54;;;;;;;55.13;35.42;;;19.50;99.90;;;;;;5081238;28;20215;-82
2023/09/10 09:20:21;;;;;;;52.13;34.55;;;19.50;99.90;;;;;;5072715;28;20888;-83
2023/09/10 09:22:50;;;;;;;50.20;33.95;;;19.50;99.90;;;;;;5071816;28;20223;-83
2023/09/10 09:25:18;;;;;;;52.70;32.97;;;19.50;99.90;;;;;;5069647;28;20303;-83
2023/09/10 09:27:45;;;;;;;55.20;35.63;;;19.50;99.90;;;;;;5083112;28;20968;-83
2023/09/10 09:30:13;;;;;;;50.58;33.55;;;19.50;99.90;;;;;;5080054;28;20459;-83
2023/09/10 09:32:40;;;;;;;50.38;33.35;;;19.50;99.90;;;;;;5075595;28;20223;-83
2023/09/10 09:35:10;;;;;;;45.95;31.95;;;19.60;99.90;;;;;;5070421;28;20219;-83
2023/09/10 09:37:38;;;;;;;50.78;33.42;;;19.60;99.90;;;;;;5074731;28;20287;-83
2023/09/10 09:40:09;;;;;;;51.22;33.67;;;19.60;99.90;;;;;;5075441;28;20310;-83
2023/09/10 09:42:36;;;;;;;49.25;32.63;;;19.60;99.90;;;;;;5073211;28;20226;-82
2023/09/10 09:45:03;;;;;;;50.72;31.98;;;19.60;99.90;;;;;;5075262;28;20231;-82
2023/09/10 09:47:33;;;;;;;47.45;31.77;;;19.70;99.90;;;;;;5076417;28;20301;-81
2023/09/10 09:50:00;;;;;;;47.65;31.30;;;19.70;99.90;;;;;;5079544;28;20706;-82
2023/09/10 09:52:26;;;;;;;41.38;30.00;;;19.80;99.90;;;;;;5078140;28;20219;-83
2023/09/10 09:54:53;;;;;;;45.75;30.90;;;20.00;99.90;;;;;;5082033;28;20241;-81
2023/09/10 09:57:20;;;;;;;43.78;30.55;;;20.20;99.90;;;;;;5081889;28;20227;-83
2023/09/10 09:59:48;;;;;;;40.30;28.45;;;20.40;99.90;;;;;;5085277;28;20244;-83
2023/09/10 10:02:18;;;;;;;39.80;27.42;;;20.60;99.90;;;;;;5071596;28;20358;-83
2023/09/10 10:04:46;;;;;;;39.67;27.88;;;20.90;99.90;;;;;;5080587;28;20234;-83
2023/09/10 10:07:14;;;;;;;38.83;27.50;;;21.20;99.90;;;;;;5084825;28;20226;-83
2023/09/10 10:09:42;;;;;;;39.28;26.85;;;21.50;99.90;;;;;;5084599;28;20211;-83
2023/09/10 10:12:09;;;;;;;36.95;26.30;;;21.90;99.90;;;;;;5081560;28;20235;-83
2023/09/10 10:14:37;;;;;;;35.60;25.85;;;22.40;99.90;;;;;;5077168;28;20599;-82
2023/09/10 10:17:05;;;;;;;30.27;22.55;;;23.00;99.90;;;;;;5081428;28;20237;-82
2023/09/10 10:19:33;;;;;;;28.98;22.05;;;23.60;99.90;;;;;;5083049;28;20229;-83
2023/09/10 10:22:04;;;;;;;29.90;21.63;;;24.20;99.90;;;;;;5085545;28;20302;-83
2023/09/10 10:24:32;;;;;;;30.27;21.70;;;24.70;99.90;;;;;;5082901;28;20265;-82
2023/09/10 10:27:01;;;;;;;30.40;22.52;;;25.20;99.90;;;;;;5083592;28;20310;-82
2023/09/10 10:29:29;;;;;;;28.90;20.73;;;25.60;99.90;;;;;;5080839;28;20237;-83
2023/09/10 10:32:01;;;;;;;26.48;20.38;;;26.10;99.90;;;;;;5085779;28;20253;-82
2023/09/10 10:34:31;;;;;;;25.88;20.75;;;26.50;99.90;;;;;;5085994;28;20222;-83
2023/09/10 10:37:11;;;;;;;28.25;20.55;;;26.90;99.90;;;;;;5084109;28;20222;-82
2023/09/10 10:39:48;;;;;;;26.73;20.83;;;27.20;99.80;;;;;;5084001;28;20219;-83
2023/09/10 10:42:19;;;;;;;26.65;20.50;;;27.40;99.50;;;;;;5086849;28;20225;-82
2023/09/10 10:44:46;;;;;;;24.65;20.10;;;27.60;99.10;;;;;;5085562;28;20262;-83
2023/09/10 10:47:20;;;;;;;25.00;20.42;;;27.90;99.20;;;;;;5086723;28;20227;-83
2023/09/10 10:49:53;;;;;;;25.65;20.52;;;28.20;98.50;;;;;;5079837;28;20271;-83
2023/09/10 10:52:25;;;;;;;24.08;19.88;;;28.40;97.60;;;;;;5078876;28;20219;-82
2023/09/10 10:54:53;;;;;;;23.15;19.20;;;28.70;97.30;;;;;;5082509;28;20333;-82
2023/09/10 10:57:21;;;;;;;22.63;18.02;;;28.90;97.30;;;;;;5080342;28;20446;-83
2023/09/10 10:59:48;;;;;;;21.95;18.50;;;29.20;96.60;;;;;;5082533;28;20285;-83
2023/09/10 11:02:21;;;;;;;22.27;17.92;;;29.40;96.30;;;;;;5078748;28;20336;-83
2023/09/10 11:04:56;;;;;;;23.08;18.83;;;29.60;95.90;;;;;;5074114;28;20226;-84
2023/09/10 11:07:26;;;;;;;20.50;17.05;;;29.80;95.10;;;;;;5077922;28;20221;-84
2023/09/10 11:09:53;;;;;;;21.33;17.63;;;30.00;94.80;;;;;;5073228;28;20222;-84
2023/09/10 11:12:20;;;;;;;20.85;17.35;;;30.20;94.60;;;;;;5077039;28;20827;-84
2023/09/10 11:15:07;;;;;;;21.10;17.65;;;30.30;94.40;;;;;;5078171;28;20293;-84
2023/09/10 11:17:35;;;;;;;21.35;17.42;;;30.50;93.40;;;;;;5061970;28;20222;-83
2023/09/10 11:20:03;;;;;;;22.38;18.38;;;30.60;93.20;;;;;;5071504;28;20563;-83
2023/09/10 11:23:11;;;;;;;19.52;15.77;;;30.60;92.50;;;;;;5084519;28;20768;-83
2023/09/10 11:25:42;;;;;;;21.55;17.67;;;30.70;92.00;;;;;;5057750;28;20220;-84
2023/09/10 11:28:41;;;;;;;22.92;19.55;;;30.70;91.70;;;;;;5075078;28;20584;-83
2023/09/10 11:31:35;;;;;;;21.30;18.25;;;30.70;91.90;;;;;;5069892;28;20308;-83
2023/09/10 11:34:35;;;;;;;21.38;17.75;;;30.70;91.50;;;;;;5072193;28;20233;-83
2023/09/10 11:37:03;;;;;;;18.95;15.95;;;30.80;91.30;;;;;;5083613;28;20241;-82
2023/09/10 11:39:31;;;;;;;22.15;18.25;;;30.80;91.50;;;;;;5083124;28;20682;-83
2023/09/10 11:42:00;;;;;;;20.30;17.27;;;30.90;90.80;;;;;;5078231;28;20852;-83
2023/09/10 11:44:28;;;;;;;20.70;16.13;;;31.00;90.60;;;;;;5066999;28;20218;-78
2023/09/10 11:46:55;;;;;;;18.25;15.85;;;31.10;90.60;;;;;;5074180;28;20231;-80
2023/09/10 11:49:23;;;;;;;21.52;17.23;;;31.10;90.50;;;;;;5070552;28;20227;-79
2023/09/10 11:51:52;;;;;;;20.90;17.15;;;31.10;90.20;;;;;;5074795;28;20230;-82
2023/09/10 11:54:20;;;;;;;20.42;16.73;;;31.20;89.70;;;;;;5075744;28;20219;-81
2023/09/10 11:56:48;;;;;;;19.23;16.23;;;31.20;88.60;;;;;;5086284;28;20701;-80
2023/09/10 11:59:19;;;;;;;20.52;16.65;;;31.20;88.50;;;;;;5078179;28;21713;-80
2023/09/10 12:01:46;;;;;;;17.25;15.07;;;31.30;88.00;;;;;;5076330;28;20251;-83
2023/09/10 12:04:16;;;;;;;18.88;16.45;;;31.30;88.00;;;;;;5081922;28;20227;-81
2023/09/10 12:06:43;;;;;;;21.25;16.42;;;31.30;86.90;;;;;;5078512;28;20227;-81
2023/09/10 12:09:10;;;;;;;17.92;16.02;;;31.30;86.30;;;;;;5079662;28;20338;-81
2023/09/10 12:11:38;;;;;;;20.50;16.80;;;31.30;85.60;;;;;;5074967;28;20351;-81
2023/09/10 12:14:05;;;;;;;17.75;14.00;;;31.20;85.10;;;;;;5076863;28;20223;-81
2023/09/10 12:16:34;;;;;;;19.00;15.60;;;31.10;86.30;;;;;;5083383;28;20226;-81
2023/09/10 12:19:01;;;;;;;19.55;15.02;;;31.10;85.90;;;;;;5082597;28;20294;-81
2023/09/10 12:21:28;;;;;;;16.80;14.95;;;31.10;86.30;;;;;;5081773;28;20301;-81
2023/09/10 12:23:54;;;;;;;17.20;14.20;;;31.10;86.70;;;;;;5086250;28;21014;-81
2023/09/10 12:26:21;;;;;;;16.77;14.65;;;31.10;86.10;;;;;;5083938;28;20223;-81
2023/09/10 12:28:51;;;;;;;16.15;14.45;;;31.10;85.90;;;;;;5084741;28;20241;-81
2023/09/10 12:31:17;;;;;;;15.82;14.13;;;31.10;85.50;;;;;;5080030;28;20243;-80
2023/09/10 12:33:46;;;;;;;16.38;13.20;;;31.10;85.20;;;;;;5080688;28;20221;-81